createdAt,value
2017-05-29T00:00:18.558Z,979.28
2017-05-29T00:01:28.825Z,979.28
2017-05-29T00:02:39.100Z,979.31
2017-05-29T00:03:49.382Z,979.32
2017-05-29T00:04:58.707Z,979.4
2017-05-29T00:06:08.348Z,979.41
2017-05-29T00:07:18.301Z,979.44
2017-05-29T00:08:28.568Z,979.41
2017-05-29T00:09:38.517Z,979.42
2017-05-29T00:10:48.791Z,979.42
2017-05-29T00:11:58.119Z,979.44
2017-05-29T00:13:07.758Z,979.41
2017-05-29T00:14:17.716Z,979.45
2017-05-29T00:15:27.665Z,979.44
2017-05-29T00:16:37.927Z,979.43
2017-05-29T00:17:48.188Z,979.48
2017-05-29T00:18:58.455Z,979.44
2017-05-29T00:20:08.400Z,979.49
2017-05-29T00:21:18.040Z,979.48
2017-05-29T00:22:27.993Z,979.52
2017-05-29T00:23:38.256Z,979.51
2017-05-29T00:24:48.220Z,979.54
2017-05-29T00:25:58.487Z,979.53
2017-05-29T00:27:08.127Z,979.58
2017-05-29T00:28:18.078Z,979.55
2017-05-29T00:29:28.037Z,979.59
2017-05-29T00:30:38.196Z,979.61
2017-05-29T00:31:48.472Z,979.62
2017-05-29T00:32:58.432Z,979.69
2017-05-29T00:34:08.698Z,979.75
2017-05-29T00:35:18.655Z,979.69
2017-05-29T00:36:28.918Z,979.71
2017-05-29T00:37:39.184Z,979.75
2017-05-29T00:38:49.449Z,979.74
2017-05-29T00:39:59.403Z,979.75
2017-05-29T00:41:09.678Z,979.73
2017-05-29T00:42:19.312Z,979.76
2017-05-29T00:43:28.955Z,979.76
2017-05-29T00:44:39.225Z,979.78
2017-05-29T00:45:49.485Z,979.74
2017-05-29T00:46:59.743Z,979.72
2017-05-29T00:48:10.012Z,979.73
2017-05-29T00:49:19.649Z,979.69
2017-05-29T00:50:29.919Z,979.68
2017-05-29T00:51:40.185Z,979.7
2017-05-29T00:52:50.449Z,979.75
2017-05-29T00:54:00.715Z,979.79
2017-05-29T00:55:10.664Z,979.79
2017-05-29T00:56:20.613Z,979.82
2017-05-29T00:57:30.873Z,979.76
2017-05-29T00:58:40.823Z,979.78
2017-05-29T00:59:51.097Z,979.76
2017-05-29T01:01:01.363Z,979.73
2017-05-29T01:02:11.627Z,979.76
2017-05-29T01:03:21.901Z,979.72
2017-05-29T01:04:32.175Z,979.73
2017-05-29T01:05:42.445Z,979.72
2017-05-29T01:06:52.708Z,979.76
2017-05-29T01:08:02.657Z,979.78
2017-05-29T01:09:12.608Z,979.78
2017-05-29T01:10:22.250Z,979.81
2017-05-29T01:11:32.510Z,979.84
2017-05-29T01:12:42.775Z,979.84
2017-05-29T01:13:53.047Z,979.84
2017-05-29T01:15:03.318Z,979.87
2017-05-29T01:16:13.264Z,979.87
2017-05-29T01:17:23.533Z,979.89
2017-05-29T01:18:33.804Z,979.87
2017-05-29T01:19:44.065Z,979.94
2017-05-29T01:20:54.013Z,979.95
2017-05-29T01:22:03.970Z,979.95
2017-05-29T01:23:13.614Z,979.95
2017-05-29T01:24:23.877Z,979.93
2017-05-29T01:25:34.134Z,979.93
2017-05-29T01:26:44.408Z,979.95
2017-05-29T01:27:54.667Z,979.91
2017-05-29T01:29:04.940Z,979.9
2017-05-29T01:30:15.203Z,979.92
2017-05-29T01:31:25.480Z,979.89
2017-05-29T01:32:35.736Z,979.94
2017-05-29T01:33:46.006Z,979.91
2017-05-29T01:34:55.962Z,979.92
2017-05-29T01:36:05.918Z,979.89
2017-05-29T01:37:16.183Z,979.91
2017-05-29T01:38:26.447Z,979.91
2017-05-29T01:39:36.710Z,979.93
2017-05-29T01:40:46.994Z,979.91
2017-05-29T01:41:56.947Z,979.93
2017-05-29T01:43:07.223Z,979.89
2017-05-29T01:44:16.865Z,979.91
2017-05-29T01:45:26.814Z,979.91
2017-05-29T01:46:37.074Z,979.88
2017-05-29T01:47:47.345Z,979.88
2017-05-29T01:48:57.610Z,979.85
2017-05-29T01:50:07.559Z,979.86
2017-05-29T01:51:17.822Z,979.89
2017-05-29T01:52:27.459Z,979.87
2017-05-29T01:53:37.728Z,979.9
2017-05-29T01:54:47.996Z,979.94
2017-05-29T01:55:57.950Z,979.92
2017-05-29T01:57:08.216Z,979.93
2017-05-29T01:58:18.476Z,979.95
2017-05-29T01:59:28.430Z,979.9
2017-05-29T02:00:38.071Z,979.95
2017-05-29T02:01:48.348Z,979.94
2017-05-29T02:02:58.304Z,979.95
2017-05-29T02:04:08.567Z,979.93
2017-05-29T02:05:18.526Z,979.95
2017-05-29T02:06:28.215Z,979.89
2017-05-29T02:07:38.162Z,979.9
2017-05-29T02:08:48.431Z,979.84
2017-05-29T02:09:58.389Z,979.83
2017-05-29T02:11:08.336Z,979.79
2017-05-29T02:12:17.665Z,979.76
2017-05-29T02:13:27.944Z,979.74
2017-05-29T02:14:38.209Z,979.77
2017-05-29T02:15:48.157Z,979.77
2017-05-29T02:16:58.111Z,979.76
2017-05-29T02:18:08.380Z,979.77
2017-05-29T02:19:18.648Z,979.75
2017-05-29T02:20:28.609Z,979.77
2017-05-29T02:21:38.871Z,979.77
2017-05-29T02:22:49.201Z,979.75
2017-05-29T02:23:59.151Z,979.69
2017-05-29T02:25:09.108Z,979.71
2017-05-29T02:26:19.063Z,979.73
2017-05-29T02:27:28.706Z,979.73
2017-05-29T02:28:38.348Z,979.78
2017-05-29T02:29:48.618Z,979.76
2017-05-29T02:30:58.892Z,979.77
2017-05-29T02:32:09.156Z,979.77
2017-05-29T02:33:18.791Z,979.75
2017-05-29T02:34:28.431Z,979.75
2017-05-29T02:35:38.385Z,979.77
2017-05-29T02:36:48.648Z,979.76
2017-05-29T02:37:58.915Z,979.8
2017-05-29T02:39:08.865Z,979.82
2017-05-29T02:40:18.813Z,979.81
2017-05-29T02:41:29.077Z,979.82
2017-05-29T02:42:39.342Z,979.79
2017-05-29T02:43:49.611Z,979.79
2017-05-29T02:44:59.878Z,979.82
2017-05-29T02:46:10.154Z,979.79
2017-05-29T02:47:20.422Z,979.77
2017-05-29T02:48:30.695Z,979.82
2017-05-29T02:49:40.647Z,979.83
2017-05-29T02:50:50.917Z,979.83
2017-05-29T02:52:00.556Z,979.86
2017-05-29T02:53:10.189Z,979.88
2017-05-29T02:54:20.144Z,979.86
2017-05-29T02:55:30.101Z,979.87
2017-05-29T02:56:40.363Z,979.86
2017-05-29T02:57:50.636Z,979.91
2017-05-29T02:59:00.592Z,979.89
2017-05-29T03:00:09.914Z,979.92
2017-05-29T03:01:19.860Z,979.94
2017-05-29T03:02:29.815Z,979.97
2017-05-29T03:03:39.767Z,980.01
2017-05-29T03:04:50.032Z,980.01
2017-05-29T03:06:00.300Z,980.05
2017-05-29T03:07:10.251Z,980.06
2017-05-29T03:08:20.201Z,980.1
2017-05-29T03:09:30.463Z,980.11
2017-05-29T03:10:40.103Z,980.1
2017-05-29T03:11:50.370Z,980.16
2017-05-29T03:13:00.637Z,980.17
2017-05-29T03:14:10.597Z,980.16
2017-05-29T03:15:20.621Z,980.19
2017-05-29T03:16:30.569Z,980.18
2017-05-29T03:17:40.520Z,980.13
2017-05-29T03:18:50.846Z,980.15
2017-05-29T03:20:01.121Z,980.15
2017-05-29T03:21:11.395Z,980.18
2017-05-29T03:22:21.345Z,980.2
2017-05-29T03:23:31.299Z,980.2
2017-05-29T03:24:41.564Z,980.23
2017-05-29T03:25:51.521Z,980.22
2017-05-29T03:27:01.783Z,980.22
2017-05-29T03:28:11.421Z,980.25
2017-05-29T03:29:21.691Z,980.23
2017-05-29T03:30:31.956Z,980.23
2017-05-29T03:31:41.901Z,980.24
2017-05-29T03:32:51.851Z,980.22
2017-05-29T03:34:01.814Z,980.25
2017-05-29T03:35:11.455Z,980.21
2017-05-29T03:36:21.402Z,980.21
2017-05-29T03:37:31.669Z,980.17
2017-05-29T03:38:41.950Z,980.16
2017-05-29T03:39:52.220Z,980.16
2017-05-29T03:41:02.747Z,980.22
2017-05-29T03:42:12.702Z,980.27
2017-05-29T03:43:22.338Z,980.26
2017-05-29T03:44:32.286Z,980.27
2017-05-29T03:45:42.550Z,980.28
2017-05-29T03:46:52.819Z,980.33
2017-05-29T03:48:03.092Z,980.33
2017-05-29T03:49:13.368Z,980.37
2017-05-29T03:50:23.011Z,980.37
2017-05-29T03:51:32.969Z,980.4
2017-05-29T03:52:43.240Z,980.4
2017-05-29T03:53:53.512Z,980.42
2017-05-29T03:55:03.775Z,980.45
2017-05-29T03:56:13.724Z,980.47
2017-05-29T03:57:23.673Z,980.44
2017-05-29T03:58:33.634Z,980.48
2017-05-29T03:59:43.901Z,980.53
2017-05-29T04:00:53.856Z,980.55
2017-05-29T04:02:03.825Z,980.56
2017-05-29T04:03:13.459Z,980.56
2017-05-29T04:04:23.723Z,980.57
2017-05-29T04:05:33.678Z,980.6
2017-05-29T04:06:43.631Z,980.61
2017-05-29T04:07:53.900Z,980.62
2017-05-29T04:09:04.162Z,980.64
2017-05-29T04:10:14.429Z,980.59
2017-05-29T04:11:24.070Z,980.62
2017-05-29T04:12:34.020Z,980.62
2017-05-29T04:13:44.290Z,980.61
2017-05-29T04:14:54.571Z,980.59
2017-05-29T04:16:04.847Z,980.57
2017-05-29T04:17:14.805Z,980.56
2017-05-29T04:18:24.767Z,980.55
2017-05-29T04:19:34.714Z,980.51
2017-05-29T04:20:44.669Z,980.56
2017-05-29T04:21:54.935Z,980.52
2017-05-29T04:23:05.198Z,980.5
2017-05-29T04:24:15.473Z,980.5
2017-05-29T04:25:25.739Z,980.47
2017-05-29T04:26:35.690Z,980.49
2017-05-29T04:27:45.962Z,980.48
2017-05-29T04:28:55.611Z,980.47
2017-05-29T04:30:05.567Z,980.49
2017-05-29T04:31:15.519Z,980.48
2017-05-29T04:32:25.479Z,980.51
2017-05-29T04:33:35.434Z,980.46
2017-05-29T04:34:45.383Z,980.5
2017-05-29T04:35:55.651Z,980.49
2017-05-29T04:37:05.618Z,980.54
2017-05-29T04:38:15.572Z,980.53
2017-05-29T04:39:25.836Z,980.53
2017-05-29T04:40:35.787Z,980.55
2017-05-29T04:41:45.743Z,980.54
2017-05-29T04:42:55.385Z,980.54
2017-05-29T04:44:05.656Z,980.54
2017-05-29T04:45:15.615Z,980.54
2017-05-29T04:46:25.882Z,980.49
2017-05-29T04:47:36.149Z,980.51
2017-05-29T04:48:47.293Z,980.52
2017-05-29T04:49:58.121Z,980.56
2017-05-29T04:51:07.763Z,980.57
2017-05-29T04:52:18.046Z,980.56
2017-05-29T04:53:27.999Z,980.52
2017-05-29T04:54:37.953Z,980.58
2017-05-29T04:55:48.229Z,980.52
2017-05-29T04:56:58.189Z,980.57
2017-05-29T04:58:07.834Z,980.53
2017-05-29T04:59:17.473Z,980.55
2017-05-29T05:00:27.741Z,980.58
2017-05-29T05:01:37.692Z,980.54
2017-05-29T05:02:47.964Z,980.51
2017-05-29T05:03:58.240Z,980.54
2017-05-29T05:05:08.196Z,980.54
2017-05-29T05:06:18.461Z,980.53
2017-05-29T05:07:28.102Z,980.5
2017-05-29T05:08:38.375Z,980.51
2017-05-29T05:09:48.648Z,980.52
2017-05-29T05:10:58.909Z,980.54
2017-05-29T05:12:09.176Z,980.59
2017-05-29T05:13:19.136Z,980.6
2017-05-29T05:14:29.091Z,980.61
2017-05-29T05:15:38.731Z,980.61
2017-05-29T05:16:48.998Z,980.66
2017-05-29T05:17:59.319Z,980.65
2017-05-29T05:19:09.274Z,980.69
2017-05-29T05:20:19.544Z,980.66
2017-05-29T05:21:29.511Z,980.68
2017-05-29T05:22:39.472Z,980.63
2017-05-29T05:23:49.112Z,980.63
2017-05-29T05:24:59.385Z,980.64
2017-05-29T05:26:09.651Z,980.61
2017-05-29T05:27:19.616Z,980.65
2017-05-29T05:28:29.569Z,980.65
2017-05-29T05:29:39.535Z,980.62
2017-05-29T05:30:49.811Z,980.65
2017-05-29T05:31:59.761Z,980.68
2017-05-29T05:33:09.714Z,980.67
2017-05-29T05:34:19.673Z,980.69
2017-05-29T05:35:29.623Z,980.7
2017-05-29T05:36:39.587Z,980.69
2017-05-29T05:37:49.852Z,980.68
2017-05-29T05:39:00.123Z,980.7
2017-05-29T05:40:10.401Z,980.68
2017-05-29T05:41:20.668Z,980.72
2017-05-29T05:42:30.931Z,980.74
2017-05-29T05:43:41.251Z,980.72
2017-05-29T05:44:51.237Z,980.74
2017-05-29T05:46:00.876Z,980.77
2017-05-29T05:47:10.514Z,980.77
2017-05-29T05:48:20.789Z,980.8
2017-05-29T05:49:31.064Z,980.79
2017-05-29T05:50:41.335Z,980.8
2017-05-29T05:51:51.295Z,980.8
2017-05-29T05:53:01.570Z,980.84
2017-05-29T05:54:11.533Z,980.81
2017-05-29T05:55:21.490Z,980.82
2017-05-29T05:56:31.441Z,980.85
2017-05-29T05:57:41.453Z,980.92
2017-05-29T05:58:51.101Z,980.9
2017-05-29T06:00:01.378Z,980.94
2017-05-29T06:01:11.658Z,980.97
2017-05-29T06:02:21.932Z,981.03
2017-05-29T06:03:31.907Z,981.05
2017-05-29T06:04:42.228Z,981.08
2017-05-29T06:05:52.496Z,981.14
2017-05-29T06:07:02.765Z,981.14
2017-05-29T06:08:13.033Z,981.13
2017-05-29T06:09:22.983Z,981.16
2017-05-29T06:10:32.622Z,981.17
2017-05-29T06:11:42.571Z,981.18
2017-05-29T06:12:52.844Z,981.22
2017-05-29T06:14:03.124Z,981.19
2017-05-29T06:15:12.762Z,981.21
2017-05-29T06:16:22.718Z,981.21
2017-05-29T06:17:32.986Z,981.19
2017-05-29T06:18:42.949Z,981.21
2017-05-29T06:19:53.225Z,981.22
2017-05-29T06:21:03.502Z,981.24
2017-05-29T06:22:13.454Z,981.26
2017-05-29T06:23:23.723Z,981.28
2017-05-29T06:24:34.001Z,981.32
2017-05-29T06:25:43.958Z,981.32
2017-05-29T06:26:54.228Z,981.28
2017-05-29T06:28:04.499Z,981.31
2017-05-29T06:29:14.768Z,981.35
2017-05-29T06:30:25.045Z,981.33
2017-05-29T06:31:35.311Z,981.41
2017-05-29T06:32:45.583Z,981.4
2017-05-29T06:33:55.544Z,981.45
2017-05-29T06:35:05.189Z,981.47
2017-05-29T06:36:15.440Z,981.48
2017-05-29T06:37:25.785Z,981.49
2017-05-29T06:38:35.757Z,981.5
2017-05-29T06:39:46.026Z,981.51
2017-05-29T06:40:55.980Z,981.56
2017-05-29T06:42:05.945Z,981.57
2017-05-29T06:43:15.277Z,981.61
2017-05-29T06:44:25.548Z,981.61
2017-05-29T06:45:35.824Z,981.62
2017-05-29T06:46:46.101Z,981.62
2017-05-29T06:47:56.371Z,981.6
2017-05-29T06:49:06.647Z,981.61
2017-05-29T06:50:16.918Z,981.65
2017-05-29T06:51:26.881Z,981.67
2017-05-29T06:52:36.841Z,981.66
2017-05-29T06:53:47.121Z,981.66
2017-05-29T06:54:57.394Z,981.72
2017-05-29T06:56:07.672Z,981.72
2017-05-29T06:57:17.640Z,981.73
2017-05-29T06:58:27.602Z,981.74
2017-05-29T06:59:37.562Z,981.78
2017-05-29T07:00:47.534Z,981.76
2017-05-29T07:01:57.495Z,981.77
2017-05-29T07:03:07.451Z,981.78
2017-05-29T07:04:17.412Z,981.8
2017-05-29T07:05:27.371Z,981.79
2017-05-29T07:06:37.383Z,981.79
2017-05-29T07:07:47.646Z,981.78
2017-05-29T07:08:57.923Z,981.85
2017-05-29T07:10:07.890Z,981.85
2017-05-29T07:11:17.842Z,981.82
2017-05-29T07:12:28.117Z,981.81
2017-05-29T07:13:38.392Z,981.84
2017-05-29T07:14:48.669Z,981.82
2017-05-29T07:15:58.937Z,981.83
2017-05-29T07:17:08.909Z,981.85
2017-05-29T07:18:18.862Z,981.82
2017-05-29T07:19:28.834Z,981.85
2017-05-29T07:20:39.105Z,981.84
2017-05-29T07:21:49.060Z,981.82
2017-05-29T07:22:59.331Z,981.85
2017-05-29T07:24:09.600Z,981.81
2017-05-29T07:25:19.873Z,981.8
2017-05-29T07:26:29.831Z,981.79
2017-05-29T07:27:40.102Z,981.75
2017-05-29T07:28:52.056Z,981.78
2017-05-29T07:30:02.332Z,981.78
2017-05-29T07:31:12.603Z,981.73
2017-05-29T07:32:22.557Z,981.76
2017-05-29T07:33:32.515Z,981.74
2017-05-29T07:34:42.789Z,981.77
2017-05-29T07:35:52.438Z,981.74
2017-05-29T07:37:02.717Z,981.76
2017-05-29T07:38:12.669Z,981.72
2017-05-29T07:39:22.386Z,981.78
2017-05-29T07:40:32.349Z,981.79
2017-05-29T07:41:42.654Z,981.79
2017-05-29T07:42:52.610Z,981.77
2017-05-29T07:44:02.885Z,981.79
2017-05-29T07:45:12.846Z,981.78
2017-05-29T07:46:22.489Z,981.75
2017-05-29T07:47:32.444Z,981.72
2017-05-29T07:48:42.086Z,981.73
2017-05-29T07:49:52.353Z,981.71
2017-05-29T07:51:02.315Z,981.74
2017-05-29T07:52:12.585Z,981.73
2017-05-29T07:53:22.535Z,981.77
2017-05-29T07:54:32.819Z,981.77
2017-05-29T07:55:42.781Z,981.77
2017-05-29T07:56:52.729Z,981.75
2017-05-29T07:58:02.686Z,981.74
2017-05-29T07:59:12.956Z,981.7
2017-05-29T08:00:23.230Z,981.67
2017-05-29T08:01:33.500Z,981.65
2017-05-29T08:02:43.456Z,981.63
2017-05-29T08:03:53.730Z,981.63
2017-05-29T08:05:03.697Z,981.62
2017-05-29T08:06:13.333Z,981.61
2017-05-29T08:07:22.985Z,981.63
2017-05-29T08:08:33.259Z,981.65
2017-05-29T08:09:43.465Z,981.68
2017-05-29T08:10:53.110Z,981.72
2017-05-29T08:12:02.752Z,981.68
2017-05-29T08:13:13.036Z,981.7
2017-05-29T08:14:22.683Z,981.72
2017-05-29T08:15:32.957Z,981.77
2017-05-29T08:16:43.229Z,981.77
2017-05-29T08:17:52.873Z,981.8
2017-05-29T08:19:02.834Z,981.8
2017-05-29T08:20:12.793Z,981.81
2017-05-29T08:21:22.439Z,981.8
2017-05-29T08:22:32.707Z,981.78
2017-05-29T08:23:42.666Z,981.81
2017-05-29T08:24:52.630Z,981.83
2017-05-29T08:26:02.634Z,981.79
2017-05-29T08:27:12.902Z,981.76
2017-05-29T08:28:22.546Z,981.77
2017-05-29T08:29:32.814Z,981.77
2017-05-29T08:30:43.091Z,981.84
2017-05-29T08:31:52.737Z,981.8
2017-05-29T08:33:02.692Z,981.79
2017-05-29T08:34:12.954Z,981.8
2017-05-29T08:35:22.917Z,981.78
2017-05-29T08:36:32.560Z,981.79
2017-05-29T08:37:42.876Z,981.78
2017-05-29T08:38:55.168Z,981.78
2017-05-29T08:40:05.439Z,981.81
2017-05-29T08:41:14.768Z,981.77
2017-05-29T08:42:25.033Z,981.79
2017-05-29T08:43:35.327Z,981.78
2017-05-29T08:44:45.600Z,981.77
2017-05-29T08:45:55.559Z,981.81
2017-05-29T08:47:05.204Z,981.77
2017-05-29T08:48:15.167Z,981.8
2017-05-29T08:49:25.438Z,981.83
2017-05-29T08:50:35.405Z,981.79
2017-05-29T08:51:45.671Z,981.81
2017-05-29T08:52:55.633Z,981.8
2017-05-29T08:54:05.899Z,981.83
2017-05-29T08:55:15.859Z,981.84
2017-05-29T08:56:25.819Z,981.88
2017-05-29T08:57:35.793Z,981.85
2017-05-29T08:58:46.088Z,981.86
2017-05-29T08:59:56.361Z,981.85
2017-05-29T09:01:06.637Z,981.86
2017-05-29T09:02:16.948Z,981.88
2017-05-29T09:03:26.794Z,981.91
2017-05-29T09:04:36.759Z,981.89
2017-05-29T09:05:47.029Z,981.94
2017-05-29T09:06:57.297Z,981.94
2017-05-29T09:08:07.254Z,981.92
2017-05-29T09:09:17.218Z,981.94
2017-05-29T09:10:26.560Z,981.92
2017-05-29T09:11:36.839Z,981.88
2017-05-29T09:12:46.846Z,981.87
2017-05-29T09:13:56.810Z,981.87
2017-05-29T09:15:07.079Z,981.85
2017-05-29T09:16:17.035Z,981.87
2017-05-29T09:17:26.997Z,981.83
2017-05-29T09:18:37.265Z,981.85
2017-05-29T09:19:47.228Z,981.87
2017-05-29T09:20:57.492Z,981.84
2017-05-29T09:22:07.756Z,981.81
2017-05-29T09:23:17.714Z,981.81
2017-05-29T09:24:27.994Z,981.82
2017-05-29T09:25:38.276Z,981.77
2017-05-29T09:26:48.549Z,981.78
2017-05-29T09:27:58.518Z,981.74
2017-05-29T09:29:08.479Z,981.78
2017-05-29T09:30:18.440Z,981.71
2017-05-29T09:31:28.403Z,981.75
2017-05-29T09:32:38.683Z,981.72
2017-05-29T09:33:48.639Z,981.72
2017-05-29T09:34:58.602Z,981.72
2017-05-29T09:36:08.248Z,981.73
2017-05-29T09:37:18.212Z,981.72
2017-05-29T09:38:28.168Z,981.75
2017-05-29T09:39:37.498Z,981.73
2017-05-29T09:40:47.148Z,981.76
2017-05-29T09:41:57.413Z,981.77
2017-05-29T09:43:07.683Z,981.81
2017-05-29T09:44:17.649Z,981.82
2017-05-29T09:45:27.613Z,981.82
2017-05-29T09:46:37.890Z,981.77
2017-05-29T09:47:48.167Z,981.78
2017-05-29T09:48:57.500Z,981.79
2017-05-29T09:50:07.773Z,981.76
2017-05-29T09:51:18.045Z,981.8
2017-05-29T09:52:28.316Z,981.79
2017-05-29T09:53:38.811Z,981.81
2017-05-29T09:54:49.090Z,981.79
2017-05-29T09:55:59.355Z,981.85
2017-05-29T09:57:09.316Z,981.83
2017-05-29T09:58:19.278Z,981.82
2017-05-29T09:59:29.244Z,981.8
2017-05-29T10:00:39.519Z,981.78
2017-05-29T10:01:48.853Z,981.82
2017-05-29T10:02:58.806Z,981.76
2017-05-29T10:04:08.767Z,981.76
2017-05-29T10:05:17.776Z,981.72
2017-05-29T10:06:27.737Z,981.72
2017-05-29T10:07:37.382Z,981.77
2017-05-29T10:08:47.656Z,981.74
2017-05-29T10:09:57.941Z,981.79
2017-05-29T10:11:07.897Z,981.79
2017-05-29T10:12:19.545Z,981.77
2017-05-29T10:13:29.811Z,981.85
2017-05-29T10:14:39.785Z,981.83
2017-05-29T10:15:50.056Z,981.83
2017-05-29T10:17:00.329Z,981.81
2017-05-29T10:18:10.830Z,981.86
2017-05-29T10:19:20.789Z,981.83
2017-05-29T10:20:30.435Z,981.83
2017-05-29T10:21:40.707Z,981.82
2017-05-29T10:22:50.975Z,981.76
2017-05-29T10:24:00.935Z,981.74
2017-05-29T10:25:11.213Z,981.77
2017-05-29T10:26:20.860Z,981.77
2017-05-29T10:27:30.189Z,981.7
2017-05-29T10:28:40.146Z,981.74
2017-05-29T10:29:50.415Z,981.71
2017-05-29T10:31:00.689Z,981.74
2017-05-29T10:32:10.332Z,981.71
2017-05-29T10:33:20.611Z,981.7
2017-05-29T10:34:30.567Z,981.74
2017-05-29T10:35:40.839Z,981.74
2017-05-29T10:36:51.110Z,981.72
2017-05-29T10:38:01.087Z,981.74
2017-05-29T10:39:11.358Z,981.73
2017-05-29T10:40:21.309Z,981.69
2017-05-29T10:41:31.272Z,981.69
2017-05-29T10:42:41.227Z,981.66
2017-05-29T10:43:51.509Z,981.66
2017-05-29T10:45:01.780Z,981.7
2017-05-29T10:46:11.729Z,981.71
2017-05-29T10:47:21.689Z,981.73
2017-05-29T10:48:31.645Z,981.73
2017-05-29T10:49:41.914Z,981.7
2017-05-29T10:50:52.187Z,981.69
2017-05-29T10:52:02.459Z,981.71
2017-05-29T10:53:12.420Z,981.61
2017-05-29T10:54:22.379Z,981.62
2017-05-29T10:55:32.342Z,981.61
2017-05-29T10:56:42.617Z,981.62
2017-05-29T10:57:52.889Z,981.67
2017-05-29T10:59:02.848Z,981.7
2017-05-29T11:00:12.854Z,981.7
2017-05-29T11:01:23.127Z,981.68
2017-05-29T11:02:33.098Z,981.68
2017-05-29T11:03:43.054Z,981.67
2017-05-29T11:04:53.028Z,981.69
2017-05-29T11:06:03.304Z,981.67
2017-05-29T11:07:13.170Z,981.64
2017-05-29T11:08:22.824Z,981.68
2017-05-29T11:09:32.784Z,981.65
2017-05-29T11:10:42.747Z,981.66
2017-05-29T11:11:52.705Z,981.62
2017-05-29T11:13:02.662Z,981.63
2017-05-29T11:14:12.939Z,981.64
2017-05-29T11:15:22.900Z,981.66
2017-05-29T11:16:32.858Z,981.64
2017-05-29T11:17:43.126Z,981.65
2017-05-29T11:18:53.421Z,981.64
2017-05-29T11:20:03.377Z,981.59
2017-05-29T11:21:13.030Z,981.6
2017-05-29T11:22:22.677Z,981.57
2017-05-29T11:23:32.631Z,981.6
2017-05-29T11:24:42.903Z,981.61
2017-05-29T11:25:52.863Z,981.6
2017-05-29T11:27:02.823Z,981.6
2017-05-29T11:28:12.856Z,981.63
2017-05-29T11:29:22.500Z,981.67
2017-05-29T11:30:32.766Z,981.62
2017-05-29T11:31:43.040Z,981.64
2017-05-29T11:32:53.316Z,981.66
2017-05-29T11:34:03.274Z,981.67
2017-05-29T11:35:13.237Z,981.63
2017-05-29T11:36:22.884Z,981.6
2017-05-29T11:37:33.152Z,981.57
2017-05-29T11:38:43.433Z,981.64
2017-05-29T11:39:53.713Z,981.66
2017-05-29T11:41:03.985Z,981.67
2017-05-29T11:42:13.938Z,981.71
2017-05-29T11:43:23.901Z,981.71
2017-05-29T11:44:34.170Z,981.67
2017-05-29T11:45:44.146Z,981.66
2017-05-29T11:46:54.103Z,981.7
2017-05-29T11:48:04.441Z,981.71
2017-05-29T11:49:14.720Z,981.73
2017-05-29T11:50:23.741Z,981.73
2017-05-29T11:51:33.702Z,981.67
2017-05-29T11:52:43.974Z,981.68
2017-05-29T11:53:54.247Z,981.68
2017-05-29T11:55:03.890Z,981.69
2017-05-29T11:56:13.851Z,981.66
2017-05-29T11:57:23.498Z,981.69
2017-05-29T11:58:33.773Z,981.69
2017-05-29T11:59:43.727Z,981.7
2017-05-29T12:00:53.690Z,981.7
2017-05-29T12:02:03.967Z,981.73
2017-05-29T12:03:13.295Z,981.71
2017-05-29T12:04:22.624Z,981.71
2017-05-29T12:05:32.899Z,981.66
2017-05-29T12:06:42.861Z,981.66
2017-05-29T12:07:52.811Z,981.66
2017-05-29T12:09:02.455Z,981.64
2017-05-29T12:10:12.412Z,981.61
2017-05-29T12:11:22.053Z,981.61
2017-05-29T12:12:31.696Z,981.57
2017-05-29T12:13:41.336Z,981.57
2017-05-29T12:14:51.612Z,981.6
2017-05-29T12:16:01.567Z,981.59
2017-05-29T12:17:11.525Z,981.6
2017-05-29T12:18:21.797Z,981.65
2017-05-29T12:19:31.757Z,981.66
2017-05-29T12:20:41.716Z,981.72
2017-05-29T12:21:51.993Z,981.74
2017-05-29T12:23:02.262Z,981.71
2017-05-29T12:24:12.541Z,981.71
2017-05-29T12:25:22.498Z,981.73
2017-05-29T12:26:32.773Z,981.72
2017-05-29T12:27:43.060Z,981.7
2017-05-29T12:28:53.022Z,981.71
2017-05-29T12:30:03.293Z,981.68
2017-05-29T12:31:13.568Z,981.68
2017-05-29T12:32:23.527Z,981.67
2017-05-29T12:33:33.496Z,981.68
2017-05-29T12:34:43.767Z,981.66
2017-05-29T12:35:54.039Z,981.65
2017-05-29T12:37:04.003Z,981.62
2017-05-29T12:38:13.961Z,981.64
2017-05-29T12:39:24.233Z,981.63
2017-05-29T12:40:34.191Z,981.63
2017-05-29T12:41:44.466Z,981.64
2017-05-29T12:42:54.742Z,981.59
2017-05-29T12:44:05.015Z,981.59
2017-05-29T12:45:14.973Z,981.59
2017-05-29T12:46:24.644Z,981.58
2017-05-29T12:47:34.921Z,981.58
2017-05-29T12:48:44.566Z,981.57
2017-05-29T12:49:55.183Z,981.57
2017-05-29T12:51:04.835Z,981.57
2017-05-29T12:52:15.114Z,981.56
2017-05-29T12:53:24.761Z,981.53
2017-05-29T12:54:35.035Z,981.55
2017-05-29T12:55:45.250Z,981.54
2017-05-29T12:56:55.233Z,981.53
2017-05-29T12:58:05.515Z,981.52
2017-05-29T12:59:15.784Z,981.51
2017-05-29T13:00:26.055Z,981.54
2017-05-29T13:01:36.011Z,981.51
2017-05-29T13:02:46.286Z,981.53
2017-05-29T13:03:56.567Z,981.52
2017-05-29T13:05:06.209Z,981.49
2017-05-29T13:06:16.491Z,981.52
2017-05-29T13:07:45.668Z,981.52
2017-05-29T13:08:55.938Z,981.5
2017-05-29T13:10:05.898Z,981.51
2017-05-29T13:11:15.236Z,981.51
2017-05-29T13:12:25.200Z,981.57
2017-05-29T13:13:35.153Z,981.57
2017-05-29T13:14:45.439Z,981.56
2017-05-29T13:15:55.409Z,981.56
2017-05-29T13:17:05.686Z,981.67
2017-05-29T13:18:15.644Z,981.61
2017-05-29T13:19:25.919Z,981.57
2017-05-29T13:20:36.207Z,981.6
2017-05-29T13:21:46.167Z,981.61
2017-05-29T13:22:56.128Z,981.53
2017-05-29T13:24:06.086Z,981.5
2017-05-29T13:25:16.046Z,981.43
2017-05-29T13:26:25.693Z,981.4
2017-05-29T13:27:35.969Z,981.38
2017-05-29T13:28:45.930Z,981.41
2017-05-29T13:29:55.890Z,981.4
2017-05-29T13:31:05.855Z,981.41
2017-05-29T13:32:15.500Z,981.45
2017-05-29T13:33:25.470Z,981.49
2017-05-29T13:34:35.428Z,981.47
2017-05-29T13:35:45.389Z,981.54
2017-05-29T13:36:55.350Z,981.59
2017-05-29T13:38:05.636Z,981.51
2017-05-29T13:39:16.643Z,981.52
2017-05-29T13:40:26.747Z,981.4
2017-05-29T13:41:37.027Z,981.46
2017-05-29T13:42:47.308Z,981.47
2017-05-29T13:43:57.589Z,981.47
2017-05-29T13:45:07.876Z,981.71
2017-05-29T13:46:17.838Z,981.48
2017-05-29T13:47:28.114Z,981.5
2017-05-29T13:48:38.390Z,981.46
2017-05-29T13:49:48.670Z,981.46
2017-05-29T13:50:58.948Z,981.44
2017-05-29T13:52:09.224Z,981.48
2017-05-29T13:53:19.184Z,981.45
2017-05-29T13:54:29.143Z,981.44
2017-05-29T13:55:38.790Z,981.42
2017-05-29T13:56:48.758Z,981.38
2017-05-29T13:57:59.030Z,981.32
2017-05-29T13:59:09.314Z,981.33
2017-05-29T14:00:19.587Z,981.35
2017-05-29T14:01:29.551Z,981.35
2017-05-29T14:02:39.514Z,981.33
2017-05-29T14:03:49.997Z,981.32
2017-05-29T14:05:00.293Z,981.26
2017-05-29T14:06:09.944Z,981.23
2017-05-29T14:07:19.910Z,981.27
2017-05-29T14:08:30.194Z,981.26
2017-05-29T14:09:39.840Z,981.22
2017-05-29T14:10:49.799Z,981.26
2017-05-29T14:12:00.065Z,981.21
2017-05-29T14:13:10.033Z,981.22
2017-05-29T14:14:19.680Z,981.27
2017-05-29T14:15:29.636Z,981.34
2017-05-29T14:16:39.601Z,981.3
2017-05-29T14:17:49.564Z,981.35
2017-05-29T14:18:59.832Z,981.37
2017-05-29T14:20:10.109Z,981.29
2017-05-29T14:21:20.383Z,981.28
2017-05-29T14:22:30.344Z,981.17
2017-05-29T14:23:39.995Z,981.2
2017-05-29T14:24:49.949Z,981.28
2017-05-29T14:26:00.221Z,981.41
2017-05-29T14:27:10.189Z,981.39
2017-05-29T14:28:19.838Z,981.38
2017-05-29T14:29:29.809Z,981.28
2017-05-29T14:30:40.088Z,981.34
2017-05-29T14:31:50.060Z,981.66
2017-05-29T14:33:00.023Z,981.82
2017-05-29T14:34:10.302Z,981.41
2017-05-29T14:35:19.954Z,981.61
2017-05-29T14:36:30.228Z,981.13